sensor_id;sensor_type;location;lat;lon;timestamp;temperature;humidity
37289;DHT22;23174;49.462;11.000;2022-09-09T00:01:22;17.40;99.90
37289;DHT22;23174;49.462;11.000;2022-09-09T00:03:26;17.30;99.90
37289;DHT22;23174;49.462;11.000;2022-09-09T00:05:42;17.20;99.90
37289;DHT22;23174;49.462;11.000;2022-09-09T00:07:49;17.20;99.90
37289;DHT22;23174;49.462;11.000;2022-09-09T00:12:11;17.20;99.90
37289;DHT22;23174;49.462;11.000;2022-09-09T00:14:52;17.20;99.90
37289;DHT22;23174;49.462;11.000;2022-09-09T00:16:57;17.20;99.90
37289;DHT22;23174;49.462;11.000;2022-09-09T00:19:11;17.30;99.90
37289;DHT22;23174;49.462;11.000;2022-09-09T00:21:16;17.30;99.90
37289;DHT22;23174;49.462;11.000;2022-09-09T00:23:19;17.20;99.90
37289;DHT22;23174;49.462;11.000;2022-09-09T00:25:28;17.20;99.90
37289;DHT22;23174;49.462;11.000;2022-09-09T00:27:39;17.20;99.90
37289;DHT22;23174;49.462;11.000;2022-09-09T00:29:47;17.10;99.90
37289;DHT22;23174;49.462;11.000;2022-09-09T00:31:57;17.20;99.90
37289;DHT22;23174;49.462;11.000;2022-09-09T00:34:21;17.20;99.90
37289;DHT22;23174;49.462;11.000;2022-09-09T00:36:24;17.30;99.90
37289;DHT22;23174;49.462;11.000;2022-09-09T00:38:36;17.20;99.90
37289;DHT22;23174;49.462;11.000;2022-09-09T00:40:50;17.20;99.90
37289;DHT22;23174;49.462;11.000;2022-09-09T00:43:06;17.30;99.90
37289;DHT22;23174;49.462;11.000;2022-09-09T00:47:52;17.20;99.90
37289;DHT22;23174;49.462;11.000;2022-09-09T00:55:21;17.10;99.90
37289;DHT22;23174;49.462;11.000;2022-09-09T00:57:34;17.20;99.90
37289;DHT22;23174;49.462;11.000;2022-09-09T00:59:53;17.10;99.90
37289;DHT22;23174;49.462;11.000;2022-09-09T01:01:56;17.10;99.90
37289;DHT22;23174;49.462;11.000;2022-09-09T01:03:57;17.10;99.90
37289;DHT22;23174;49.462;11.000;2022-09-09T01:06:02;17.10;99.90
37289;DHT22;23174;49.462;11.000;2022-09-09T01:08:11;17.10;99.90
37289;DHT22;23174;49.462;11.000;2022-09-09T01:10:52;17.10;99.90
37289;DHT22;23174;49.462;11.000;2022-09-09T01:12:56;17.10;99.90
37289;DHT22;23174;49.462;11.000;2022-09-09T01:21:50;17.00;99.90
37289;DHT22;23174;49.462;11.000;2022-09-09T01:28:28;16.90;99.90
37289;DHT22;23174;49.462;11.000;2022-09-09T01:30:31;16.90;99.90
37289;DHT22;23174;49.462;11.000;2022-09-09T01:32:55;16.90;99.90
37289;DHT22;23174;49.462;11.000;2022-09-09T01:34:58;16.90;99.90
37289;DHT22;23174;49.462;11.000;2022-09-09T01:37:10;17.00;99.90
37289;DHT22;23174;49.462;11.000;2022-09-09T01:39:11;16.90;99.90
37289;DHT22;23174;49.462;11.000;2022-09-09T01:41:12;16.90;99.90
37289;DHT22;23174;49.462;11.000;2022-09-09T01:43:13;16.90;99.90
37289;DHT22;23174;49.462;11.000;2022-09-09T01:45:14;16.80;99.90
37289;DHT22;23174;49.462;11.000;2022-09-09T01:47:15;16.80;99.90
37289;DHT22;23174;49.462;11.000;2022-09-09T01:49:16;16.80;99.90
37289;DHT22;23174;49.462;11.000;2022-09-09T01:51:18;16.90;99.90
37289;DHT22;23174;49.462;11.000;2022-09-09T01:53:20;16.90;99.90
37289;DHT22;23174;49.462;11.000;2022-09-09T01:55:32;16.80;99.90
37289;DHT22;23174;49.462;11.000;2022-09-09T01:57:43;16.80;99.90
37289;DHT22;23174;49.462;11.000;2022-09-09T02:00:05;16.90;99.90
37289;DHT22;23174;49.462;11.000;2022-09-09T02:06:34;17.00;99.90
37289;DHT22;23174;49.462;11.000;2022-09-09T02:08:45;17.00;99.90
37289;DHT22;23174;49.462;11.000;2022-09-09T02:11:03;17.00;99.90
37289;DHT22;23174;49.462;11.000;2022-09-09T02:13:12;17.00;99.90
37289;DHT22;23174;49.462;11.000;2022-09-09T02:15:35;16.90;99.90
37289;DHT22;23174;49.462;11.000;2022-09-09T02:17:41;17.00;99.90
37289;DHT22;23174;49.462;11.000;2022-09-09T02:19:46;17.00;99.90
37289;DHT22;23174;49.462;11.000;2022-09-09T02:21:49;17.00;99.90
37289;DHT22;23174;49.462;11.000;2022-09-09T02:23:52;16.90;99.90
37289;DHT22;23174;49.462;11.000;2022-09-09T02:25:54;16.90;99.90
37289;DHT22;23174;49.462;11.000;2022-09-09T02:27:56;17.00;99.90
37289;DHT22;23174;49.462;11.000;2022-09-09T02:30:01;17.00;99.90
37289;DHT22;23174;49.462;11.000;2022-09-09T02:32:06;16.90;99.90
37289;DHT22;23174;49.462;11.000;2022-09-09T02:34:09;17.00;99.90
37289;DHT22;23174;49.462;11.000;2022-09-09T02:36:12;16.90;99.90
37289;DHT22;23174;49.462;11.000;2022-09-09T02:38:17;17.00;99.90
37289;DHT22;23174;49.462;11.000;2022-09-09T02:40:18;17.00;99.90
37289;DHT22;23174;49.462;11.000;2022-09-09T02:42:19;17.00;99.90
37289;DHT22;23174;49.462;11.000;2022-09-09T02:44:19;17.00;99.90
37289;DHT22;23174;49.462;11.000;2022-09-09T02:48:55;17.00;99.90
37289;DHT22;23174;49.462;11.000;2022-09-09T02:51:42;17.00;99.90
37289;DHT22;23174;49.462;11.000;2022-09-09T02:53:32;17.00;99.90
37289;DHT22;23174;49.462;11.000;2022-09-09T02:57:46;17.00;99.90
37289;DHT22;23174;49.462;11.000;2022-09-09T02:59:48;17.00;99.90
37289;DHT22;23174;49.462;11.000;2022-09-09T03:01:49;17.00;99.90
37289;DHT22;23174;49.462;11.000;2022-09-09T03:03:49;17.10;99.90
37289;DHT22;23174;49.462;11.000;2022-09-09T03:05:50;17.00;99.90
37289;DHT22;23174;49.462;11.000;2022-09-09T03:07:50;17.10;99.90
37289;DHT22;23174;49.462;11.000;2022-09-09T03:09:51;17.00;99.90
37289;DHT22;23174;49.462;11.000;2022-09-09T03:11:54;16.90;99.90
37289;DHT22;23174;49.462;11.000;2022-09-09T03:13:55;17.00;99.90
37289;DHT22;23174;49.462;11.000;2022-09-09T03:15:59;16.90;99.90
37289;DHT22;23174;49.462;11.000;2022-09-09T03:18:00;16.90;99.90
37289;DHT22;23174;49.462;11.000;2022-09-09T03:20:03;16.90;99.90
37289;DHT22;23174;49.462;11.000;2022-09-09T03:22:04;16.80;99.90
37289;DHT22;23174;49.462;11.000;2022-09-09T03:24:04;17.00;99.90
37289;DHT22;23174;49.462;11.000;2022-09-09T03:26:07;17.00;99.90
37289;DHT22;23174;49.462;11.000;2022-09-09T03:28:07;16.90;99.90
37289;DHT22;23174;49.462;11.000;2022-09-09T03:30:08;17.00;99.90
37289;DHT22;23174;49.462;11.000;2022-09-09T03:32:09;17.00;99.90
37289;DHT22;23174;49.462;11.000;2022-09-09T03:34:11;17.00;99.90
37289;DHT22;23174;49.462;11.000;2022-09-09T03:36:11;17.10;99.90
37289;DHT22;23174;49.462;11.000;2022-09-09T03:38:12;17.00;99.90
37289;DHT22;23174;49.462;11.000;2022-09-09T03:40:13;16.90;99.90
37289;DHT22;23174;49.462;11.000;2022-09-09T03:42:14;16.90;99.90
37289;DHT22;23174;49.462;11.000;2022-09-09T03:44:18;16.80;99.90
37289;DHT22;23174;49.462;11.000;2022-09-09T03:46:22;16.80;99.90
37289;DHT22;23174;49.462;11.000;2022-09-09T03:48:23;16.80;99.90
37289;DHT22;23174;49.462;11.000;2022-09-09T03:50:24;16.80;99.90
37289;DHT22;23174;49.462;11.000;2022-09-09T03:52:25;16.80;99.90
37289;DHT22;23174;49.462;11.000;2022-09-09T03:54:26;16.80;99.90
37289;DHT22;23174;49.462;11.000;2022-09-09T03:56:27;16.90;99.90
37289;DHT22;23174;49.462;11.000;2022-09-09T03:58:28;16.90;99.90
37289;DHT22;23174;49.462;11.000;2022-09-09T04:00:28;16.90;99.90
37289;DHT22;23174;49.462;11.000;2022-09-09T04:02:30;16.90;99.90
37289;DHT22;23174;49.462;11.000;2022-09-09T04:04:31;16.90;99.90
37289;DHT22;23174;49.462;11.000;2022-09-09T04:06:31;16.90;99.90
37289;DHT22;23174;49.462;11.000;2022-09-09T04:08:32;16.90;99.90
37289;DHT22;23174;49.462;11.000;2022-09-09T04:10:33;16.80;99.90
37289;DHT22;23174;49.462;11.000;2022-09-09T04:12:33;16.90;99.90
37289;DHT22;23174;49.462;11.000;2022-09-09T04:14:35;16.90;99.90
37289;DHT22;23174;49.462;11.000;2022-09-09T04:16:35;16.90;99.90
37289;DHT22;23174;49.462;11.000;2022-09-09T04:18:37;16.90;99.90
37289;DHT22;23174;49.462;11.000;2022-09-09T04:20:38;16.90;99.90
37289;DHT22;23174;49.462;11.000;2022-09-09T04:22:39;16.80;99.90
37289;DHT22;23174;49.462;11.000;2022-09-09T04:24:39;16.80;99.90
37289;DHT22;23174;49.462;11.000;2022-09-09T04:26:40;16.80;99.90
37289;DHT22;23174;49.462;11.000;2022-09-09T04:28:40;16.90;99.90
37289;DHT22;23174;49.462;11.000;2022-09-09T04:30:42;16.90;99.90
37289;DHT22;23174;49.462;11.000;2022-09-09T04:32:45;16.90;99.90
37289;DHT22;23174;49.462;11.000;2022-09-09T04:34:46;16.90;99.90
37289;DHT22;23174;49.462;11.000;2022-09-09T04:36:48;16.80;99.90
37289;DHT22;23174;49.462;11.000;2022-09-09T04:38:48;16.90;99.90
37289;DHT22;23174;49.462;11.000;2022-09-09T04:40:51;16.80;99.90
37289;DHT22;23174;49.462;11.000;2022-09-09T04:42:52;16.70;99.90
37289;DHT22;23174;49.462;11.000;2022-09-09T04:44:52;16.70;99.90
37289;DHT22;23174;49.462;11.000;2022-09-09T04:46:53;16.80;99.90
37289;DHT22;23174;49.462;11.000;2022-09-09T04:48:53;16.70;99.90
37289;DHT22;23174;49.462;11.000;2022-09-09T04:50:59;16.70;99.90
37289;DHT22;23174;49.462;11.000;2022-09-09T04:53:04;16.70;99.90
37289;DHT22;23174;49.462;11.000;2022-09-09T04:55:08;16.70;99.90
37289;DHT22;23174;49.462;11.000;2022-09-09T04:57:10;16.70;99.90
37289;DHT22;23174;49.462;11.000;2022-09-09T04:59:11;16.80;99.90
37289;DHT22;23174;49.462;11.000;2022-09-09T05:01:21;16.80;99.90
37289;DHT22;23174;49.462;11.000;2022-09-09T05:03:22;16.90;99.90
37289;DHT22;23174;49.462;11.000;2022-09-09T05:05:23;16.80;99.90
37289;DHT22;23174;49.462;11.000;2022-09-09T05:07:24;16.80;99.90
37289;DHT22;23174;49.462;11.000;2022-09-09T05:09:26;16.90;99.90
37289;DHT22;23174;49.462;11.000;2022-09-09T05:11:31;16.90;99.90
37289;DHT22;23174;49.462;11.000;2022-09-09T05:13:32;16.90;99.90
37289;DHT22;23174;49.462;11.000;2022-09-09T05:15:33;16.90;99.90
37289;DHT22;23174;49.462;11.000;2022-09-09T05:17:34;17.00;99.90
37289;DHT22;23174;49.462;11.000;2022-09-09T05:19:34;17.10;99.90
37289;DHT22;23174;49.462;11.000;2022-09-09T05:21:35;17.00;99.90
37289;DHT22;23174;49.462;11.000;2022-09-09T05:23:36;16.90;99.90
37289;DHT22;23174;49.462;11.000;2022-09-09T05:25:37;16.90;99.90
37289;DHT22;23174;49.462;11.000;2022-09-09T05:27:38;16.80;99.90
37289;DHT22;23174;49.462;11.000;2022-09-09T05:29:38;16.70;99.90
37289;DHT22;23174;49.462;11.000;2022-09-09T05:31:41;16.80;99.90
37289;DHT22;23174;49.462;11.000;2022-09-09T05:33:44;16.90;99.90
37289;DHT22;23174;49.462;11.000;2022-09-09T05:35:46;16.90;99.90
37289;DHT22;23174;49.462;11.000;2022-09-09T05:37:46;16.90;99.90
37289;DHT22;23174;49.462;11.000;2022-09-09T05:39:48;17.10;99.90
37289;DHT22;23174;49.462;11.000;2022-09-09T05:41:48;17.10;99.90
37289;DHT22;23174;49.462;11.000;2022-09-09T05:43:49;17.10;99.90
37289;DHT22;23174;49.462;11.000;2022-09-09T05:46:00;17.10;99.90
37289;DHT22;23174;49.462;11.000;2022-09-09T05:48:04;17.10;99.90
37289;DHT22;23174;49.462;11.000;2022-09-09T05:50:05;17.00;99.90
37289;DHT22;23174;49.462;11.000;2022-09-09T05:52:06;17.00;99.90
37289;DHT22;23174;49.462;11.000;2022-09-09T05:54:07;17.00;99.90
37289;DHT22;23174;49.462;11.000;2022-09-09T05:56:09;16.90;99.90
37289;DHT22;23174;49.462;11.000;2022-09-09T05:58:17;16.90;99.90
37289;DHT22;23174;49.462;11.000;2022-09-09T06:00:18;16.80;99.90
37289;DHT22;23174;49.462;11.000;2022-09-09T06:02:19;16.80;99.90
37289;DHT22;23174;49.462;11.000;2022-09-09T06:04:20;16.90;99.90
37289;DHT22;23174;49.462;11.000;2022-09-09T06:06:27;16.80;99.90
37289;DHT22;23174;49.462;11.000;2022-09-09T06:08:28;16.80;99.90
37289;DHT22;23174;49.462;11.000;2022-09-09T06:10:28;16.80;99.90
37289;DHT22;23174;49.462;11.000;2022-09-09T06:12:29;16.80;99.90
37289;DHT22;23174;49.462;11.000;2022-09-09T06:14:30;16.90;99.90
37289;DHT22;23174;49.462;11.000;2022-09-09T06:16:31;17.00;99.90
37289;DHT22;23174;49.462;11.000;2022-09-09T06:18:35;16.90;99.90
37289;DHT22;23174;49.462;11.000;2022-09-09T06:20:35;16.90;99.90
37289;DHT22;23174;49.462;11.000;2022-09-09T06:22:38;16.00;99.90
37289;DHT22;23174;49.462;11.000;2022-09-09T06:24:39;15.80;99.90
37289;DHT22;23174;49.462;11.000;2022-09-09T06:26:39;15.80;99.90
37289;DHT22;23174;49.462;11.000;2022-09-09T06:28:41;15.70;99.90
37289;DHT22;23174;49.462;11.000;2022-09-09T06:30:45;15.70;99.90
37289;DHT22;23174;49.462;11.000;2022-09-09T06:32:47;15.70;99.90
37289;DHT22;23174;49.462;11.000;2022-09-09T06:34:47;15.80;99.90
37289;DHT22;23174;49.462;11.000;2022-09-09T06:36:49;15.90;99.90
37289;DHT22;23174;49.462;11.000;2022-09-09T06:38:50;15.90;99.90
37289;DHT22;23174;49.462;11.000;2022-09-09T06:40:54;16.20;99.90
37289;DHT22;23174;49.462;11.000;2022-09-09T06:42:59;16.20;99.90
37289;DHT22;23174;49.462;11.000;2022-09-09T06:45:01;16.20;99.90
37289;DHT22;23174;49.462;11.000;2022-09-09T06:47:01;16.30;99.90
37289;DHT22;23174;49.462;11.000;2022-09-09T06:49:02;16.30;99.90
37289;DHT22;23174;49.462;11.000;2022-09-09T06:51:06;16.40;99.90
37289;DHT22;23174;49.462;11.000;2022-09-09T06:53:07;16.30;99.90
37289;DHT22;23174;49.462;11.000;2022-09-09T06:55:08;16.40;99.90
37289;DHT22;23174;49.462;11.000;2022-09-09T06:57:09;16.30;99.90
37289;DHT22;23174;49.462;11.000;2022-09-09T06:59:10;16.30;99.90
37289;DHT22;23174;49.462;11.000;2022-09-09T07:01:13;16.30;99.90
37289;DHT22;23174;49.462;11.000;2022-09-09T07:03:14;16.30;99.90
37289;DHT22;23174;49.462;11.000;2022-09-09T07:05:14;16.40;99.90
37289;DHT22;23174;49.462;11.000;2022-09-09T07:07:15;16.40;99.90
37289;DHT22;23174;49.462;11.000;2022-09-09T07:09:16;16.40;99.90
37289;DHT22;23174;49.462;11.000;2022-09-09T07:11:18;16.50;99.90
37289;DHT22;23174;49.462;11.000;2022-09-09T07:13:26;16.50;99.90
37289;DHT22;23174;49.462;11.000;2022-09-09T07:15:27;16.60;99.90
37289;DHT22;23174;49.462;11.000;2022-09-09T07:17:28;16.60;99.90
37289;DHT22;23174;49.462;11.000;2022-09-09T07:19:29;16.60;99.90
37289;DHT22;23174;49.462;11.000;2022-09-09T07:21:31;16.60;99.90
37289;DHT22;23174;49.462;11.000;2022-09-09T07:23:32;16.90;99.90
37289;DHT22;23174;49.462;11.000;2022-09-09T07:25:33;16.90;99.90
37289;DHT22;23174;49.462;11.000;2022-09-09T07:27:33;17.00;99.90
37289;DHT22;23174;49.462;11.000;2022-09-09T07:29:34;17.00;99.90
37289;DHT22;23174;49.462;11.000;2022-09-09T07:31:36;17.00;99.90
37289;DHT22;23174;49.462;11.000;2022-09-09T07:33:37;17.00;99.90
37289;DHT22;23174;49.462;11.000;2022-09-09T07:35:38;17.00;99.90
37289;DHT22;23174;49.462;11.000;2022-09-09T07:37:38;17.00;99.90
37289;DHT22;23174;49.462;11.000;2022-09-09T07:39:40;17.10;99.90
37289;DHT22;23174;49.462;11.000;2022-09-09T07:41:45;17.20;99.90
37289;DHT22;23174;49.462;11.000;2022-09-09T07:43:47;17.50;99.90
37289;DHT22;23174;49.462;11.000;2022-09-09T07:45:57;17.50;99.90
37289;DHT22;23174;49.462;11.000;2022-09-09T07:47:58;17.40;99.90
37289;DHT22;23174;49.462;11.000;2022-09-09T07:49:58;17.60;99.90
37289;DHT22;23174;49.462;11.000;2022-09-09T07:51:59;17.70;99.90
37289;DHT22;23174;49.462;11.000;2022-09-09T07:54:06;17.50;99.90
37289;DHT22;23174;49.462;11.000;2022-09-09T07:56:09;17.60;99.90
37289;DHT22;23174;49.462;11.000;2022-09-09T07:58:10;17.80;99.90
37289;DHT22;23174;49.462;11.000;2022-09-09T08:00:11;17.70;99.90
37289;DHT22;23174;49.462;11.000;2022-09-09T08:02:12;17.60;99.90
37289;DHT22;23174;49.462;11.000;2022-09-09T08:04:15;17.60;99.90
37289;DHT22;23174;49.462;11.000;2022-09-09T08:06:16;17.80;99.90
37289;DHT22;23174;49.462;11.000;2022-09-09T08:08:17;18.10;99.90
37289;DHT22;23174;49.462;11.000;2022-09-09T08:10:17;17.90;99.90
37289;DHT22;23174;49.462;11.000;2022-09-09T08:12:18;18.00;99.90
37289;DHT22;23174;49.462;11.000;2022-09-09T08:14:19;18.20;99.90
37289;DHT22;23174;49.462;11.000;2022-09-09T08:16:22;18.20;99.90
37289;DHT22;23174;49.462;11.000;2022-09-09T08:18:23;18.30;99.90
37289;DHT22;23174;49.462;11.000;2022-09-09T08:20:24;18.50;99.90
37289;DHT22;23174;49.462;11.000;2022-09-09T08:22:24;18.60;99.90
37289;DHT22;23174;49.462;11.000;2022-09-09T08:24:25;18.80;99.90
37289;DHT22;23174;49.462;11.000;2022-09-09T08:26:31;18.80;99.90
37289;DHT22;23174;49.462;11.000;2022-09-09T08:28:33;18.90;99.90
37289;DHT22;23174;49.462;11.000;2022-09-09T08:30:34;19.00;99.90
37289;DHT22;23174;49.462;11.000;2022-09-09T08:32:34;19.10;99.90
37289;DHT22;23174;49.462;11.000;2022-09-09T08:34:35;19.00;99.90
37289;DHT22;23174;49.462;11.000;2022-09-09T08:36:41;19.10;99.90
37289;DHT22;23174;49.462;11.000;2022-09-09T08:38:43;19.20;99.90
37289;DHT22;23174;49.462;11.000;2022-09-09T08:40:45;19.40;99.90
37289;DHT22;23174;49.462;11.000;2022-09-09T08:42:51;19.50;99.90
37289;DHT22;23174;49.462;11.000;2022-09-09T08:45:12;19.50;99.90
37289;DHT22;23174;49.462;11.000;2022-09-09T08:51:58;19.80;99.90
37289;DHT22;23174;49.462;11.000;2022-09-09T08:54:02;19.80;99.90
37289;DHT22;23174;49.462;11.000;2022-09-09T08:56:09;20.20;99.90
37289;DHT22;23174;49.462;11.000;2022-09-09T08:58:15;20.40;99.90
37289;DHT22;23174;49.462;11.000;2022-09-09T09:00:16;20.60;99.90
37289;DHT22;23174;49.462;11.000;2022-09-09T09:04:51;20.60;99.90
37289;DHT22;23174;49.462;11.000;2022-09-09T09:11:53;20.90;99.90
37289;DHT22;23174;49.462;11.000;2022-09-09T09:13:59;21.00;99.90
37289;DHT22;23174;49.462;11.000;2022-09-09T09:18:32;21.00;99.90
37289;DHT22;23174;49.462;11.000;2022-09-09T09:23:16;21.10;99.90
37289;DHT22;23174;49.462;11.000;2022-09-09T09:25:23;21.20;99.90
37289;DHT22;23174;49.462;11.000;2022-09-09T09:27:49;21.10;99.90
37289;DHT22;23174;49.462;11.000;2022-09-09T09:29:55;21.10;99.90
37289;DHT22;23174;49.462;11.000;2022-09-09T09:32:01;21.10;99.90
37289;DHT22;23174;49.462;11.000;2022-09-09T09:34:02;21.10;99.90
37289;DHT22;23174;49.462;11.000;2022-09-09T09:36:04;21.20;99.90
37289;DHT22;23174;49.462;11.000;2022-09-09T09:38:20;21.30;99.90
37289;DHT22;23174;49.462;11.000;2022-09-09T09:40:23;21.30;99.90
37289;DHT22;23174;49.462;11.000;2022-09-09T09:42:23;21.30;99.90
37289;DHT22;23174;49.462;11.000;2022-09-09T09:44:28;21.30;99.90
37289;DHT22;23174;49.462;11.000;2022-09-09T09:46:29;21.40;99.90
37289;DHT22;23174;49.462;11.000;2022-09-09T09:48:29;21.40;99.90
37289;DHT22;23174;49.462;11.000;2022-09-09T09:50:32;21.30;99.90
37289;DHT22;23174;49.462;11.000;2022-09-09T09:52:33;21.30;99.90
37289;DHT22;23174;49.462;11.000;2022-09-09T09:54:39;21.30;99.90
37289;DHT22;23174;49.462;11.000;2022-09-09T09:56:43;21.40;99.90
37289;DHT22;23174;49.462;11.000;2022-09-09T10:00:50;21.50;99.90
37289;DHT22;23174;49.462;11.000;2022-09-09T10:02:51;21.40;99.90
37289;DHT22;23174;49.462;11.000;2022-09-09T10:05:05;21.30;99.90
37289;DHT22;23174;49.462;11.000;2022-09-09T10:07:32;21.20;99.90
37289;DHT22;23174;49.462;11.000;2022-09-09T10:09:33;21.30;99.90
37289;DHT22;23174;49.462;11.000;2022-09-09T10:14:12;21.30;99.90
37289;DHT22;23174;49.462;11.000;2022-09-09T10:19:00;21.40;99.90
37289;DHT22;23174;49.462;11.000;2022-09-09T10:33:23;21.70;99.90
37289;DHT22;23174;49.462;11.000;2022-09-09T10:37:48;21.70;99.90
37289;DHT22;23174;49.462;11.000;2022-09-09T10:40:04;21.70;99.90
37289;DHT22;23174;49.462;11.000;2022-09-09T10:42:14;21.70;99.90
37289;DHT22;23174;49.462;11.000;2022-09-09T10:49:00;21.70;99.90
37289;DHT22;23174;49.462;11.000;2022-09-09T10:55:57;21.80;99.90
37289;DHT22;23174;49.462;11.000;2022-09-09T10:58:00;21.80;99.90
37289;DHT22;23174;49.462;11.000;2022-09-09T11:00:06;21.80;99.90
37289;DHT22;23174;49.462;11.000;2022-09-09T11:02:32;21.80;99.90
37289;DHT22;23174;49.462;11.000;2022-09-09T11:04:38;21.90;99.90
37289;DHT22;23174;49.462;11.000;2022-09-09T11:06:42;22.00;99.90
37289;DHT22;23174;49.462;11.000;2022-09-09T11:08:45;22.10;99.90
37289;DHT22;23174;49.462;11.000;2022-09-09T11:14:08;22.10;99.90
37289;DHT22;23174;49.462;11.000;2022-09-09T11:16:04;22.10;99.90
37289;DHT22;23174;49.462;11.000;2022-09-09T11:18:15;22.10;99.90
37289;DHT22;23174;49.462;11.000;2022-09-09T11:20:18;22.00;99.90
37289;DHT22;23174;49.462;11.000;2022-09-09T11:22:29;22.00;99.90
37289;DHT22;23174;49.462;11.000;2022-09-09T11:24:38;22.00;99.90
37289;DHT22;23174;49.462;11.000;2022-09-09T11:26:57;22.00;99.90
37289;DHT22;23174;49.462;11.000;2022-09-09T11:29:06;22.00;99.90
37289;DHT22;23174;49.462;11.000;2022-09-09T11:31:34;21.90;99.90
37289;DHT22;23174;49.462;11.000;2022-09-09T11:33:45;22.00;99.90
37289;DHT22;23174;49.462;11.000;2022-09-09T11:36:35;22.00;99.90
37289;DHT22;23174;49.462;11.000;2022-09-09T11:38:46;22.00;99.90
37289;DHT22;23174;49.462;11.000;2022-09-09T11:40:58;22.10;99.90
37289;DHT22;23174;49.462;11.000;2022-09-09T11:43:22;22.20;99.90
37289;DHT22;23174;49.462;11.000;2022-09-09T11:45:26;22.20;99.90
37289;DHT22;23174;49.462;11.000;2022-09-09T11:47:30;22.20;99.90
37289;DHT22;23174;49.462;11.000;2022-09-09T11:49:41;22.20;99.90
37289;DHT22;23174;49.462;11.000;2022-09-09T11:51:42;22.20;99.90
37289;DHT22;23174;49.462;11.000;2022-09-09T11:53:54;22.20;99.90
37289;DHT22;23174;49.462;11.000;2022-09-09T11:56:06;22.10;99.90
37289;DHT22;23174;49.462;11.000;2022-09-09T12:00:41;22.10;99.90
37289;DHT22;23174;49.462;11.000;2022-09-09T12:02:48;22.10;99.90
37289;DHT22;23174;49.462;11.000;2022-09-09T12:05:05;22.10;99.90
37289;DHT22;23174;49.462;11.000;2022-09-09T12:11:29;22.10;99.90
37289;DHT22;23174;49.462;11.000;2022-09-09T12:13:31;22.10;99.90
37289;DHT22;23174;49.462;11.000;2022-09-09T12:15:32;22.10;99.90
37289;DHT22;23174;49.462;11.000;2022-09-09T12:17:42;22.00;99.90
37289;DHT22;23174;49.462;11.000;2022-09-09T12:19:43;22.10;99.90
37289;DHT22;23174;49.462;11.000;2022-09-09T12:21:58;22.10;99.90
37289;DHT22;23174;49.462;11.000;2022-09-09T12:24:11;22.00;99.90
37289;DHT22;23174;49.462;11.000;2022-09-09T12:28:49;22.10;99.90
37289;DHT22;23174;49.462;11.000;2022-09-09T12:31:08;22.10;99.90
37289;DHT22;23174;49.462;11.000;2022-09-09T12:33:12;22.10;99.90
37289;DHT22;23174;49.462;11.000;2022-09-09T12:35:20;22.00;99.90
37289;DHT22;23174;49.462;11.000;2022-09-09T12:37:35;21.90;99.90
37289;DHT22;23174;49.462;11.000;2022-09-09T12:40:05;22.00;99.90
37289;DHT22;23174;49.462;11.000;2022-09-09T12:42:16;21.90;99.90
37289;DHT22;23174;49.462;11.000;2022-09-09T12:44:17;21.80;99.90
37289;DHT22;23174;49.462;11.000;2022-09-09T12:46:22;21.80;99.90
37289;DHT22;23174;49.462;11.000;2022-09-09T12:48:44;21.80;99.90
37289;DHT22;23174;49.462;11.000;2022-09-09T12:50:46;21.80;99.90
37289;DHT22;23174;49.462;11.000;2022-09-09T12:52:50;21.90;99.90
37289;DHT22;23174;49.462;11.000;2022-09-09T12:54:52;21.80;99.90
37289;DHT22;23174;49.462;11.000;2022-09-09T12:56:54;21.90;99.90
37289;DHT22;23174;49.462;11.000;2022-09-09T12:58:56;21.90;99.90
37289;DHT22;23174;49.462;11.000;2022-09-09T13:00:56;21.60;99.90
37289;DHT22;23174;49.462;11.000;2022-09-09T13:02:59;21.20;99.90
37289;DHT22;23174;49.462;11.000;2022-09-09T13:05:17;20.80;99.90
37289;DHT22;23174;49.462;11.000;2022-09-09T13:07:20;20.60;99.90
37289;DHT22;23174;49.462;11.000;2022-09-09T13:09:21;20.40;99.90
37289;DHT22;23174;49.462;11.000;2022-09-09T13:13:36;20.20;99.90
37289;DHT22;23174;49.462;11.000;2022-09-09T13:15:38;20.10;99.90
37289;DHT22;23174;49.462;11.000;2022-09-09T13:17:38;20.10;99.90
37289;DHT22;23174;49.462;11.000;2022-09-09T13:19:44;20.10;99.90
37289;DHT22;23174;49.462;11.000;2022-09-09T13:21:45;20.00;99.90
37289;DHT22;23174;49.462;11.000;2022-09-09T13:23:50;20.10;99.90
37289;DHT22;23174;49.462;11.000;2022-09-09T13:25:57;20.20;99.90
37289;DHT22;23174;49.462;11.000;2022-09-09T13:28:03;20.30;99.90
37289;DHT22;23174;49.462;11.000;2022-09-09T13:30:27;20.40;99.90
37289;DHT22;23174;49.462;11.000;2022-09-09T13:32:28;20.50;99.90
37289;DHT22;23174;49.462;11.000;2022-09-09T13:34:31;20.60;99.90
37289;DHT22;23174;49.462;11.000;2022-09-09T13:36:34;20.70;99.90
37289;DHT22;23174;49.462;11.000;2022-09-09T13:38:56;20.70;99.90
37289;DHT22;23174;49.462;11.000;2022-09-09T13:41:03;20.80;99.90
37289;DHT22;23174;49.462;11.000;2022-09-09T13:43:05;20.80;99.90
37289;DHT22;23174;49.462;11.000;2022-09-09T13:45:14;20.70;99.90
37289;DHT22;23174;49.462;11.000;2022-09-09T13:47:21;20.70;99.90
37289;DHT22;23174;49.462;11.000;2022-09-09T13:49:23;20.70;99.90
37289;DHT22;23174;49.462;11.000;2022-09-09T13:51:49;20.60;99.90
37289;DHT22;23174;49.462;11.000;2022-09-09T13:53:50;20.60;99.90
37289;DHT22;23174;49.462;11.000;2022-09-09T13:55:53;20.70;99.90
37289;DHT22;23174;49.462;11.000;2022-09-09T13:58:04;20.70;99.90
37289;DHT22;23174;49.462;11.000;2022-09-09T14:00:09;20.60;99.90
37289;DHT22;23174;49.462;11.000;2022-09-09T14:02:10;20.60;99.90
37289;DHT22;23174;49.462;11.000;2022-09-09T14:04:11;20.60;99.90
37289;DHT22;23174;49.462;11.000;2022-09-09T14:06:12;20.70;99.90
37289;DHT22;23174;49.462;11.000;2022-09-09T14:08:22;20.80;99.90
37289;DHT22;23174;49.462;11.000;2022-09-09T14:10:23;20.80;99.90
37289;DHT22;23174;49.462;11.000;2022-09-09T14:12:24;20.80;99.90
37289;DHT22;23174;49.462;11.000;2022-09-09T14:14:24;20.80;99.90
37289;DHT22;23174;49.462;11.000;2022-09-09T14:16:26;20.80;99.90
37289;DHT22;23174;49.462;11.000;2022-09-09T14:18:28;20.90;99.90
37289;DHT22;23174;49.462;11.000;2022-09-09T14:20:29;21.00;99.90
37289;DHT22;23174;49.462;11.000;2022-09-09T14:22:30;20.90;99.90
37289;DHT22;23174;49.462;11.000;2022-09-09T14:24:30;20.90;99.90
37289;DHT22;23174;49.462;11.000;2022-09-09T14:26:31;20.90;99.90
37289;DHT22;23174;49.462;11.000;2022-09-09T14:28:33;20.90;99.90
37289;DHT22;23174;49.462;11.000;2022-09-09T14:30:33;20.90;99.90